Time;durP1;ratioP1;P1;durP2;ratioP2;P2;SDS_P1;SDS_P2;PMS_P1;PMS_P2;Temp;Humidity;BMP_temperature;BMP_pressure;BME280_temperature;BME280_humidity;BME280_pressure;Samples;Min_cycle;Max_cycle;Signal;HPM_P1;HPM_P2
2023/03/29 00:00:59;;;;;;;2.92;0.80;;;;;;;13.19;30.20;95058.97;5021892;28;20045;-93
2023/03/29 00:03:26;;;;;;;4.95;1.10;;;;;;;13.88;29.49;95060.38;5018499;28;20037;-94
2023/03/29 00:05:56;;;;;;;7.05;0.98;;;;;;;13.06;30.14;95057.69;5005106;28;20036;-93
2023/03/29 00:08:24;;;;;;;3.78;1.10;;;;;;;12.73;30.71;95059.81;5035887;28;20033;-91
2023/03/29 00:10:50;;;;;;;11.82;1.23;;;;;;;12.62;30.13;95058.22;5028454;28;20037;-92
2023/03/29 00:13:16;;;;;;;6.60;1.10;;;;;;;12.81;29.99;95067.19;5010585;28;20334;-92
2023/03/29 00:15:42;;;;;;;4.95;1.10;;;;;;;12.84;29.25;95063.25;5024999;28;20078;-93
2023/03/29 00:18:08;;;;;;;6.72;0.93;;;;;;;13.14;28.64;95078.19;5021383;28;20390;-92
2023/03/29 00:20:33;;;;;;;4.57;0.98;;;;;;;13.05;28.58;95065.84;5022097;28;20036;-90
2023/03/29 00:22:59;;;;;;;6.80;1.15;;;;;;;12.82;28.35;95073.22;5021243;28;20068;-91
2023/03/29 00:25:25;;;;;;;4.40;1.08;;;;;;;12.51;28.58;95068.75;5021735;28;20021;-92
2023/03/29 00:27:50;;;;;;;5.30;0.70;;;;;;;12.74;27.84;95074.53;5023979;28;20033;-92
2023/03/29 00:30:16;;;;;;;3.65;1.17;;;;;;;12.94;27.41;95086.09;5021461;28;20056;-91
2023/03/29 00:32:42;;;;;;;3.00;0.75;;;;;;;12.57;27.28;95088.72;5022390;28;20119;-91
2023/03/29 00:35:08;;;;;;;1.50;0.50;;;;;;;12.55;27.26;95084.75;5037990;28;20457;-92
2023/03/29 00:40:55;;;;;;;2.83;0.80;;;;;;;12.54;26.95;95072.66;5058565;28;20044;-91
2023/03/29 00:43:21;;;;;;;3.60;0.70;;;;;;;12.95;26.15;95079.78;5020944;28;20038;-89
2023/03/29 00:45:47;;;;;;;2.40;0.60;;;;;;;12.27;26.70;95073.72;5039472;28;20041;-90
2023/03/29 00:48:16;;;;;;;4.72;0.77;;;;;;;13.26;25.78;95072.63;5037054;28;20140;-91
2023/03/29 00:51:06;;;;;;;1.83;0.60;;;;;;;12.92;26.01;95077.69;5056133;28;20461;-91
2023/03/29 00:53:37;;;;;;;5.72;0.75;;;;;;;12.62;26.24;95081.88;5021079;28;20052;-92
2023/03/29 00:56:08;;;;;;;1.85;0.70;;;;;;;13.11;25.76;95064.75;5020768;28;20025;-92
2023/03/29 00:58:38;;;;;;;5.95;1.00;;;;;;;12.79;25.33;95066.66;5037443;28;20033;-91
2023/03/29 01:01:07;;;;;;;1.27;0.60;;;;;;;12.62;25.21;95053.75;5020763;28;20331;-91
2023/03/29 01:03:45;;;;;;;5.60;0.90;;;;;;;12.78;25.31;95046.69;5004822;28;20042;-91
2023/03/29 01:06:12;;;;;;;2.28;0.60;;;;;;;13.29;23.93;95050.25;5021160;28;20030;-91
2023/03/29 01:08:46;;;;;;;3.83;0.70;;;;;;;13.48;23.90;95052.34;5021459;28;20056;-90
2023/03/29 01:11:17;;;;;;;1.75;0.50;;;;;;;13.70;23.62;95047.53;5036878;28;20060;-91
2023/03/29 01:13:51;;;;;;;1.92;0.60;;;;;;;13.26;23.76;95035.78;5021668;28;20025;-92
2023/03/29 01:16:18;;;;;;;2.90;0.75;;;;;;;12.75;24.26;95031.41;5020572;28;20103;-91
2023/03/29 01:18:45;;;;;;;1.65;0.70;;;;;;;13.19;23.84;95042.38;5021790;28;20363;-92
2023/03/29 01:21:31;;;;;;;4.15;0.70;;;;;;;13.90;23.16;95024.00;5020983;28;20029;-92
2023/03/29 01:24:12;;;;;;;3.45;0.60;;;;;;;13.51;23.67;95022.88;5015046;28;20036;-91
2023/03/29 01:26:37;;;;;;;5.85;0.95;;;;;;;13.60;23.59;95012.56;5039958;28;20029;-91
2023/03/29 01:29:16;;;;;;;2.78;0.60;;;;;;;13.69;23.11;95017.00;5036732;28;20036;-91
2023/03/29 01:31:45;;;;;;;1.13;0.50;;;;;;;13.49;23.50;95009.19;5036540;28;20044;-91
2023/03/29 01:34:24;;;;;;;3.80;0.52;;;;;;;14.20;22.89;95007.22;5020127;28;20351;-91
2023/03/29 01:37:26;;;;;;;1.67;0.65;;;;;;;13.14;23.56;95007.16;5022937;28;20443;-91
2023/03/29 01:39:52;;;;;;;3.92;0.73;;;;;;;12.97;24.16;95015.34;4989188;28;20123;-90
2023/03/29 01:42:21;;;;;;;1.80;0.70;;;;;;;13.16;24.39;95012.16;5057430;28;20033;-91
2023/03/29 01:44:51;;;;;;;1.13;0.73;;;;;;;12.87;24.43;95010.13;5057071;28;20068;-93
2023/03/29 01:47:32;;;;;;;3.17;0.70;;;;;;;12.97;24.20;95007.44;5036343;28;20031;-90
2023/03/29 01:50:17;;;;;;;1.45;0.68;;;;;;;13.11;24.39;95012.94;5049109;28;20029;-91
2023/03/29 01:52:51;;;;;;;2.22;0.70;;;;;;;12.66;24.81;95012.75;5037811;28;20419;-92
2023/03/29 01:55:32;;;;;;;0.80;0.57;;;;;;;13.37;24.85;95006.81;5057243;28;20075;-91
2023/03/29 01:57:59;;;;;;;2.65;0.70;;;;;;;12.95;25.02;95006.91;5036440;28;20026;-91
2023/03/29 02:00:26;;;;;;;2.22;0.73;;;;;;;12.50;25.74;94996.22;5019773;28;20029;-91
2023/03/29 02:02:54;;;;;;;2.70;0.60;;;;;;;12.48;25.42;94990.44;5022352;28;20455;-91
2023/03/29 02:05:21;;;;;;;3.53;0.70;;;;;;;12.23;25.91;94989.38;5019821;28;20080;-91
2023/03/29 02:07:47;;;;;;;1.85;0.73;;;;;;;12.58;25.56;94989.63;5021307;28;20136;-91
2023/03/29 02:10:14;;;;;;;4.40;0.70;;;;;;;12.79;25.96;94985.16;5019580;28;20025;-90
2023/03/29 02:12:40;;;;;;;2.75;0.77;;;;;;;12.50;25.37;94992.78;5037162;28;20056;-92
2023/03/29 02:15:12;;;;;;;4.57;0.68;;;;;;;12.47;25.69;94988.06;5019508;28;20049;-91
2023/03/29 02:17:38;;;;;;;2.15;0.68;;;;;;;12.04;25.62;94972.53;5036848;28;20033;-89
2023/03/29 02:20:13;;;;;;;3.22;0.70;;;;;;;12.24;25.62;94967.31;5019791;28;20092;-91
2023/03/29 02:22:53;;;;;;;3.53;0.60;;;;;;;12.75;25.23;94978.81;5020734;28;20029;-90
2023/03/29 02:25:21;;;;;;;3.25;0.73;;;;;;;12.32;25.77;94965.19;5035885;28;20026;-91
2023/03/29 02:27:47;;;;;;;4.15;0.80;;;;;;;12.22;26.37;94974.66;5021773;28;20025;-90
2023/03/29 02:30:15;;;;;;;4.80;0.80;;;;;;;12.23;25.92;94967.56;5035451;28;20032;-90
2023/03/29 02:32:48;;;;;;;1.80;0.60;;;;;;;12.40;25.85;94983.84;5017606;28;20135;-92
2023/03/29 02:35:19;;;;;;;2.67;0.70;;;;;;;13.46;24.78;94980.75;5017747;28;20034;-92
2023/03/29 02:37:48;;;;;;;1.00;0.35;;;;;;;13.13;24.90;94973.22;5007928;28;20049;-91
2023/03/29 02:40:15;;;;;;;5.05;0.77;;;;;;;13.30;25.40;94980.78;5002675;28;20041;-92
2023/03/29 02:42:43;;;;;;;2.35;0.52;;;;;;;13.38;26.47;94982.06;5023140;28;20060;-91
2023/03/29 02:45:12;;;;;;;2.35;0.50;;;;;;;13.04;26.24;94972.19;5019864;28;20092;-91
2023/03/29 02:47:41;;;;;;;2.10;0.75;;;;;;;12.86;25.96;94969.09;5020688;28;20435;-92
2023/03/29 02:50:07;;;;;;;5.15;1.13;;;;;;;12.76;25.82;94963.84;5003623;28;20386;-92
2023/03/29 02:52:35;;;;;;;1.70;0.55;;;;;;;12.86;25.58;94961.19;5003107;28;20034;-90
2023/03/29 02:55:03;;;;;;;5.90;0.75;;;;;;;12.87;25.64;94958.28;5019887;28;20435;-92
2023/03/29 02:57:31;;;;;;;1.17;0.40;;;;;;;12.28;25.53;94941.31;5019844;28;20029;-92
2023/03/29 02:59:57;;;;;;;5.07;0.93;;;;;;;12.97;25.01;94938.28;5019734;28;20033;-91
2023/03/29 03:02:28;;;;;;;2.58;0.90;;;;;;;12.77;24.89;94945.19;5002770;28;20076;-91
2023/03/29 03:04:53;;;;;;;4.32;0.70;;;;;;;12.91;25.41;94942.78;5039195;28;20030;-91
2023/03/29 03:07:19;;;;;;;1.02;0.57;;;;;;;12.92;25.65;94940.94;5019777;28;20029;-92
2023/03/29 03:09:46;;;;;;;2.70;0.70;;;;;;;12.72;25.04;94938.09;5021130;28;20028;-91
2023/03/29 03:12:12;;;;;;;2.95;0.90;;;;;;;12.41;25.10;94935.50;5003311;28;20021;-90
2023/03/29 03:14:38;;;;;;;0.85;0.60;;;;;;;12.43;25.47;94941.28;5003500;28;20030;-90
2023/03/29 03:17:03;;;;;;;2.58;0.63;;;;;;;12.38;25.69;94928.13;5019554;28;20029;-91
2023/03/29 03:19:29;;;;;;;3.22;0.93;;;;;;;12.35;25.72;94917.38;5002367;28;20029;-90
2023/03/29 03:21:54;;;;;;;3.38;0.82;;;;;;;12.56;25.90;94929.44;5022522;28;20037;-92
2023/03/29 03:24:20;;;;;;;3.28;0.77;;;;;;;12.56;26.21;94933.91;5002843;28;20038;-91
2023/03/29 03:26:46;;;;;;;2.65;0.60;;;;;;;12.37;26.13;94926.56;5020840;28;20462;-90
2023/03/29 03:29:13;;;;;;;5.63;0.60;;;;;;;12.84;26.57;94929.91;5002603;28;20026;-91
2023/03/29 03:31:41;;;;;;;1.92;0.70;;;;;;;12.26;26.39;94927.63;5020177;28;20030;-92
2023/03/29 03:34:07;;;;;;;2.60;0.80;;;;;;;12.22;26.67;94919.50;5019617;28;20022;-92
2023/03/29 03:36:34;;;;;;;2.00;0.60;;;;;;;12.71;26.28;94936.50;5002924;28;20371;-92
2023/03/29 03:39:01;;;;;;;1.92;0.52;;;;;;;12.99;25.90;94921.19;5018844;28;20112;-92
2023/03/29 03:41:27;;;;;;;2.20;1.02;;;;;;;12.50;26.43;94925.25;5002894;28;20032;-91
2023/03/29 03:43:52;;;;;;;5.57;0.70;;;;;;;12.56;26.40;94921.53;5039113;28;20331;-90
2023/03/29 03:46:18;;;;;;;3.63;0.70;;;;;;;12.93;25.93;94926.72;5002025;28;20087;-90
2023/03/29 03:48:45;;;;;;;3.00;0.82;;;;;;;12.61;26.70;94926.00;5020614;28;20357;-92
2023/03/29 03:51:10;;;;;;;4.30;0.77;;;;;;;12.87;26.04;94928.59;5001618;28;20041;-92
2023/03/29 03:53:36;;;;;;;4.03;0.82;;;;;;;12.59;26.35;94913.13;5003088;28;20022;-92
2023/03/29 03:56:07;;;;;;;3.88;0.70;;;;;;;13.33;26.22;94917.09;5018730;28;20025;-91
2023/03/29 03:58:33;;;;;;;2.22;0.80;;;;;;;13.51;25.68;94912.31;5003298;28;20069;-92
2023/03/29 04:00:58;;;;;;;4.63;0.70;;;;;;;13.09;26.13;94909.84;5018520;28;20030;-91
2023/03/29 04:03:25;;;;;;;9.52;0.63;;;;;;;12.71;26.87;94898.91;5002232;28;20412;-91
2023/03/29 04:05:52;;;;;;;3.60;0.75;;;;;;;13.09;26.76;94919.56;5021238;28;20030;-92
2023/03/29 04:08:18;;;;;;;9.13;0.95;;;;;;;13.04;27.31;94925.63;5002179;28;20033;-92
2023/03/29 04:10:51;;;;;;;6.28;1.20;;;;;;;12.77;27.62;94928.59;5020154;28;20025;-90
2023/03/29 04:13:17;;;;;;;4.68;1.10;;;;;;;12.64;27.76;94929.97;5002260;28;20076;-93
2023/03/29 04:15:44;;;;;;;6.30;1.00;;;;;;;13.05;27.36;94915.91;5019863;28;20030;-92
2023/03/29 04:18:10;;;;;;;4.10;0.75;;;;;;;12.79;28.06;94921.25;5002361;28;20049;-91
2023/03/29 04:20:36;;;;;;;1.75;0.63;;;;;;;13.12;27.42;94924.28;5019469;28;20033;-91
2023/03/29 04:23:02;;;;;;;3.38;0.75;;;;;;;13.17;27.70;94931.38;5010939;28;20439;-91
2023/03/29 04:25:27;;;;;;;2.72;1.10;;;;;;;12.83;28.39;94933.59;5010411;28;20406;-91
2023/03/29 04:27:53;;;;;;;3.95;0.90;;;;;;;12.92;27.98;94933.81;5019859;28;20037;-89
2023/03/29 04:30:18;;;;;;;7.10;1.13;;;;;;;13.36;27.51;94935.00;5021202;28;20032;-91
2023/03/29 04:32:44;;;;;;;2.35;0.85;;;;;;;13.29;27.66;94934.47;5004903;28;20025;-89
2023/03/29 04:35:09;;;;;;;3.78;0.82;;;;;;;13.21;27.85;94942.94;5021285;28;20068;-91
2023/03/29 04:37:35;;;;;;;6.53;0.85;;;;;;;12.82;28.07;94934.66;5004747;28;20132;-91
2023/03/29 04:40:03;;;;;;;6.50;1.00;;;;;;;12.98;28.08;94939.84;5005032;28;20034;-90
2023/03/29 04:42:29;;;;;;;7.78;0.70;;;;;;;13.06;27.59;94936.69;5004919;28;20025;-89
2023/03/29 04:44:54;;;;;;;5.55;0.70;;;;;;;12.81;28.05;94922.56;5038094;28;20462;-89
2023/03/29 04:47:20;;;;;;;6.85;1.25;;;;;;;12.77;28.07;94918.88;5004405;28;20037;-90
2023/03/29 04:49:46;;;;;;;1.73;0.80;;;;;;;12.53;28.31;94924.72;5004497;28;20055;-90
2023/03/29 04:52:12;;;;;;;5.97;0.90;;;;;;;13.26;27.64;94935.03;5004731;28;20029;-91
2023/03/29 04:54:37;;;;;;;4.13;1.00;;;;;;;12.71;28.09;94931.25;5020663;28;20026;-90
2023/03/29 04:57:06;;;;;;;2.78;0.70;;;;;;;13.26;28.06;94922.63;5004177;28;20112;-92
2023/03/29 04:59:32;;;;;;;3.58;1.08;;;;;;;12.49;28.76;94922.88;5003452;28;20066;-90
2023/03/29 05:01:57;;;;;;;3.53;0.88;;;;;;;12.56;28.48;94926.81;5003994;28;20038;-90
2023/03/29 05:04:24;;;;;;;4.05;0.73;;;;;;;12.66;28.75;94933.09;5020870;28;20040;-90
2023/03/29 05:06:49;;;;;;;5.30;1.10;;;;;;;12.66;28.98;94925.22;5022783;28;20353;-90
2023/03/29 05:09:15;;;;;;;3.78;0.65;;;;;;;13.14;28.47;94938.75;5020157;28;20065;-91
2023/03/29 05:11:41;;;;;;;5.28;1.20;;;;;;;12.46;29.15;94939.19;5021831;28;20064;-90
2023/03/29 05:14:08;;;;;;;3.40;0.80;;;;;;;12.44;29.36;94942.06;5049667;28;20051;-89
2023/03/29 05:16:34;;;;;;;5.88;1.10;;;;;;;12.65;29.12;94934.94;5040616;28;20065;-90
2023/03/29 05:19:01;;;;;;;4.43;0.95;;;;;;;12.98;29.05;94947.75;5032515;28;20378;-91
2023/03/29 05:21:27;;;;;;;4.78;0.82;;;;;;;13.11;28.58;94952.44;5040317;28;20473;-91
2023/03/29 05:23:54;;;;;;;5.03;0.70;;;;;;;13.62;28.27;94960.41;5057536;28;20123;-91
2023/03/29 05:26:21;;;;;;;4.18;1.15;;;;;;;13.59;28.46;94953.84;5051616;28;20367;-91
2023/03/29 05:32:08;;;;;;;7.13;0.68;;;;;;;13.53;28.30;94953.06;5057519;28;20079;-90
2023/03/29 05:34:35;;;;;;;4.65;0.60;;;;;;;13.33;28.54;94967.09;5052357;28;20411;-91
2023/03/29 05:37:00;;;;;;;5.00;0.80;;;;;;;13.59;28.20;94967.00;5048298;28;20075;-90
2023/03/29 05:39:26;;;;;;;13.93;1.17;;;;;;;13.54;28.26;94965.19;5039694;28;20029;-90
2023/03/29 05:41:51;;;;;;;3.47;0.98;;;;;;;13.69;28.38;94960.91;5056058;28;20033;-90
2023/03/29 05:44:17;;;;;;;4.90;0.82;;;;;;;13.85;27.93;94964.22;5050535;28;20079;-90
2023/03/29 05:46:44;;;;;;;3.78;0.98;;;;;;;13.79;28.15;94967.97;5039477;28;20397;-90
2023/03/29 05:49:09;;;;;;;8.15;0.95;;;;;;;13.49;29.05;94977.59;5033142;28;20580;-91
2023/03/29 05:51:35;;;;;;;4.40;1.20;;;;;;;13.75;28.97;94977.47;5056118;28;20121;-92
2023/03/29 05:54:01;;;;;;;1.88;0.73;;;;;;;13.91;28.50;94976.31;5032135;28;20028;-90
2023/03/29 05:56:27;;;;;;;3.60;0.88;;;;;;;13.77;29.20;94978.75;5057245;28;20032;-88
2023/03/29 05:58:58;;;;;;;3.22;0.93;;;;;;;14.14;30.23;94969.59;5055427;28;20025;-89
2023/03/29 06:01:24;;;;;;;2.10;0.77;;;;;;;14.05;28.54;94975.69;5051711;28;20033;-90
2023/03/29 06:03:51;;;;;;;5.07;1.17;;;;;;;14.24;29.83;94967.91;5026571;28;20041;-90
2023/03/29 06:06:16;;;;;;;2.78;0.90;;;;;;;14.63;28.77;94961.81;5015320;28;20041;-91
2023/03/29 06:08:43;;;;;;;4.63;0.73;;;;;;;14.07;29.94;94971.72;5001286;28;20117;-90
2023/03/29 06:11:10;;;;;;;8.80;0.80;;;;;;;14.79;29.09;94972.25;5000116;28;20034;-90
2023/03/29 06:13:37;;;;;;;7.85;1.00;;;;;;;13.92;29.18;94977.91;5016790;28;20029;-90
2023/03/29 06:16:07;;;;;;;7.43;1.00;;;;;;;14.40;30.19;94977.28;4999899;28;20087;-91
2023/03/29 06:18:33;;;;;;;6.45;1.20;;;;;;;14.03;29.55;94977.81;5034260;28;20037;-91
2023/03/29 06:21:01;;;;;;;1.95;0.90;;;;;;;14.58;29.07;94980.31;5016122;28;20128;-91
2023/03/29 06:23:27;;;;;;;2.90;1.00;;;;;;;14.59;28.52;94986.38;4999889;28;20068;-92
2023/03/29 06:25:54;;;;;;;8.98;1.25;;;;;;;13.88;30.05;94982.13;5002375;28;20128;-90
2023/03/29 06:28:19;;;;;;;10.52;1.00;;;;;;;14.37;30.93;94977.84;4999687;28;20026;-89
2023/03/29 06:30:46;;;;;;;9.00;1.00;;;;;;;14.51;29.56;94971.94;5017330;28;20449;-90
2023/03/29 06:33:13;;;;;;;3.53;1.30;;;;;;;14.62;28.62;94972.63;5015698;28;20061;-89
2023/03/29 06:35:41;;;;;;;6.55;1.05;;;;;;;14.07;29.08;94984.91;5016841;28;20025;-88
2023/03/29 06:38:06;;;;;;;4.13;0.80;;;;;;;14.43;29.84;94981.22;5035905;28;20048;-90
2023/03/29 06:40:32;;;;;;;4.85;1.00;;;;;;;14.46;30.80;94983.28;5015287;28;20030;-90
2023/03/29 06:42:58;;;;;;;2.58;1.00;;;;;;;14.43;28.92;94991.75;5015643;28;20029;-89
2023/03/29 06:45:27;;;;;;;4.75;1.20;;;;;;;14.31;31.34;94983.41;4999574;28;20443;-89
2023/03/29 06:47:53;;;;;;;7.28;1.00;;;;;;;14.52;30.14;94978.78;5018706;28;20123;-89
2023/03/29 06:50:19;;;;;;;7.00;1.00;;;;;;;14.46;31.60;94993.84;5015532;28;20121;-89
2023/03/29 06:52:45;;;;;;;2.55;1.10;;;;;;;14.93;29.88;94986.34;5017434;28;20032;-89
2023/03/29 06:55:11;;;;;;;2.80;0.95;;;;;;;14.57;31.92;94992.69;5015957;28;20045;-89
2023/03/29 06:57:37;;;;;;;4.38;0.93;;;;;;;15.19;29.57;94991.34;5016646;28;20033;-89
2023/03/29 07:00:15;;;;;;;4.40;0.90;;;;;;;15.27;30.71;94989.94;5032021;28;20053;-89
2023/03/29 07:02:41;;;;;;;4.30;1.05;;;;;;;14.91;32.71;94985.84;5016970;28;20459;-89
2023/03/29 07:05:10;;;;;;;4.03;1.05;;;;;;;15.40;32.39;94994.56;5015493;28;20121;-89
2023/03/29 07:08:29;;;;;;;5.20;1.30;;;;;;;15.61;31.84;94991.66;5015865;28;20028;-89
2023/03/29 07:10:32;;;;;;;2.60;0.90;;;;;;;15.50;30.54;94998.16;4991870;28;20098;-89
2023/03/29 07:13:01;;;;;;;3.65;1.30;;;;;;;15.94;31.70;94997.09;5004210;28;20044;-88
2023/03/29 07:15:28;;;;;;;6.25;1.27;;;;;;;15.72;29.50;95004.75;5038906;28;20120;-88
2023/03/29 07:17:54;;;;;;;2.10;1.05;;;;;;;15.46;30.71;95000.56;5022357;28;20343;-88
2023/03/29 07:20:21;;;;;;;2.72;1.10;;;;;;;15.59;28.57;95007.00;5018902;28;20055;-89
2023/03/29 07:22:49;;;;;;;3.70;0.93;;;;;;;16.54;29.04;95000.97;5040852;28;20411;-88
2023/03/29 07:25:17;;;;;;;2.95;1.00;;;;;;;16.79;27.87;95003.47;5022770;28;20030;-88
2023/03/29 07:28:03;;;;;;;4.35;1.40;;;;;;;17.07;28.94;95004.34;5024265;28;20028;-89
2023/03/29 07:30:29;;;;;;;1.50;1.08;;;;;;;16.91;29.09;95005.63;5060241;28;20024;-89
2023/03/29 07:32:57;;;;;;;3.78;1.00;;;;;;;16.21;31.91;95019.44;5025724;28;20035;-91
2023/03/29 07:35:23;;;;;;;3.35;1.15;;;;;;;16.10;33.45;95004.78;5059528;28;20087;-91
2023/03/29 07:37:49;;;;;;;5.35;1.25;;;;;;;16.09;33.08;94997.94;5040865;28;20030;-91
2023/03/29 07:40:22;;;;;;;8.57;1.67;;;;;;;16.86;30.00;95003.88;5022169;28;20084;-91
2023/03/29 07:42:53;;;;;;;4.47;0.85;;;;;;;17.28;27.89;95011.88;5025264;28;20062;-90
2023/03/29 07:45:20;;;;;;;4.70;1.10;;;;;;;17.48;28.71;95015.22;5038149;28;20030;-90
2023/03/29 07:47:47;;;;;;;4.40;1.23;;;;;;;17.75;28.26;95021.56;5023962;28;20128;-89
2023/03/29 07:50:13;;;;;;;3.00;1.02;;;;;;;18.33;27.30;95016.66;5022492;28;20064;-89
2023/03/29 07:52:39;;;;;;;6.38;1.30;;;;;;;17.94;29.27;95029.41;5022872;28;20390;-90
2023/03/29 07:55:07;;;;;;;3.25;0.80;;;;;;;18.29;27.65;95031.59;5038177;28;20116;-91
2023/03/29 07:57:33;;;;;;;5.25;1.08;;;;;;;17.83;29.37;95025.38;5038412;28;20116;-90
2023/03/29 07:59:59;;;;;;;3.42;1.08;;;;;;;18.06;28.27;95018.31;5022007;28;20457;-90
2023/03/29 08:02:25;;;;;;;3.50;1.20;;;;;;;17.99;29.11;95017.91;5021649;28;20025;-92
2023/03/29 08:04:52;;;;;;;4.72;1.27;;;;;;;18.41;27.31;95031.88;5024342;28;20026;-90
2023/03/29 08:07:18;;;;;;;7.43;1.27;;;;;;;17.69;29.10;95020.91;5036011;28;20033;-90
2023/03/29 08:09:45;;;;;;;3.35;1.23;;;;;;;18.68;27.90;95029.38;5057835;28;20091;-90
2023/03/29 08:12:11;;;;;;;3.45;1.08;;;;;;;18.94;28.81;95024.25;5034441;28;20032;-90
2023/03/29 08:14:37;;;;;;;3.85;0.90;;;;;;;19.26;27.12;95027.69;5057699;28;20338;-91
2023/03/29 08:17:07;;;;;;;3.55;1.02;;;;;;;19.21;26.66;95030.47;5033910;28;20036;-90
2023/03/29 08:19:33;;;;;;;6.78;0.82;;;;;;;18.84;28.40;95030.56;5040466;28;20074;-90
2023/03/29 08:21:59;;;;;;;7.40;1.33;;;;;;;18.92;28.44;95023.75;5021421;28;20033;-90
2023/03/29 08:24:25;;;;;;;5.53;1.13;;;;;;;17.30;30.31;95028.25;5037564;28;20029;-91
2023/03/29 08:26:52;;;;;;;4.40;0.98;;;;;;;18.30;27.37;95030.53;5040178;28;20033;-91
2023/03/29 08:29:17;;;;;;;2.95;1.33;;;;;;;18.85;29.46;95028.72;5037512;28;20108;-91
2023/03/29 08:31:43;;;;;;;5.00;1.40;;;;;;;18.22;29.50;95037.31;5022281;28;20552;-91
2023/03/29 08:34:09;;;;;;;3.00;1.35;;;;;;;18.90;29.01;95028.56;5036628;28;20033;-92
2023/03/29 08:36:34;;;;;;;5.10;1.20;;;;;;;19.09;29.24;95043.56;5037929;28;20123;-92
2023/03/29 08:39:36;;;;;;;5.78;1.30;;;;;;;19.59;28.32;95037.19;5037268;28;20029;-90
2023/03/29 08:42:20;;;;;;;3.90;1.20;;;;;;;19.45;26.95;95047.94;5050321;28;20029;-91
2023/03/29 08:45:22;;;;;;;3.90;1.20;;;;;;;19.32;28.45;95045.06;5039161;28;20480;-90
2023/03/29 08:48:28;;;;;;;3.92;1.17;;;;;;;19.88;27.42;95038.53;5039922;28;20025;-90
2023/03/29 08:50:57;;;;;;;3.70;1.52;;;;;;;19.50;28.10;95034.50;5058106;28;20029;-92
2023/03/29 08:53:28;;;;;;;10.40;1.70;;;;;;;19.07;28.46;95038.53;5020504;28;20032;-91
2023/03/29 08:55:57;;;;;;;3.35;1.20;;;;;;;19.99;26.03;95037.13;5058074;28;20029;-90
2023/03/29 08:58:27;;;;;;;3.72;1.42;;;;;;;19.94;28.88;95031.97;5020791;28;20036;-91
2023/03/29 09:00:54;;;;;;;5.57;1.50;;;;;;;19.67;28.02;95030.34;5039795;28;20327;-92
2023/03/29 09:03:31;;;;;;;5.18;1.27;;;;;;;20.28;26.61;95035.75;5020670;28;20029;-91
2023/03/29 09:06:08;;;;;;;2.50;1.02;;;;;;;20.49;29.28;95025.25;5037089;28;20343;-90
2023/03/29 09:08:37;;;;;;;3.60;1.23;;;;;;;20.35;29.77;95027.31;5020852;28;20049;-92
2023/03/29 09:11:30;;;;;;;5.18;1.50;;;;;;;19.71;28.00;95033.94;5021465;28;20053;-90
2023/03/29 09:14:15;;;;;;;5.07;1.33;;;;;;;20.19;26.35;95029.66;5036896;28;20032;-92
2023/03/29 09:17:15;;;;;;;8.40;1.50;;;;;;;19.98;25.88;95030.25;5038088;28;20037;-92
2023/03/29 09:19:55;;;;;;;3.10;1.05;;;;;;;19.71;26.55;95025.97;5037995;28;20037;-93
2023/03/29 09:22:27;;;;;;;8.55;1.30;;;;;;;19.30;26.93;95012.72;5020461;28;20167;-90
2023/03/29 09:24:57;;;;;;;6.88;1.45;;;;;;;19.41;28.13;95018.53;5056945;28;20033;-91
2023/03/29 09:27:26;;;;;;;4.63;1.50;;;;;;;19.10;26.82;95021.22;5036596;28;20347;-91
2023/03/29 09:30:27;;;;;;;5.82;1.42;;;;;;;20.27;26.42;95015.56;5022792;28;20037;-90
2023/03/29 09:33:16;;;;;;;6.22;1.40;;;;;;;20.06;27.48;95013.53;5008666;28;20040;-92
2023/03/29 09:36:04;;;;;;;5.30;1.30;;;;;;;19.98;26.29;95008.97;5021371;28;20055;-90
2023/03/29 09:38:30;;;;;;;5.28;1.35;;;;;;;20.41;26.74;95010.09;5036311;28;20489;-92
2023/03/29 09:41:02;;;;;;;4.93;1.30;;;;;;;19.81;26.44;95011.59;5036339;28;20029;-91
2023/03/29 09:43:33;;;;;;;6.25;1.58;;;;;;;20.69;27.27;95009.75;5034756;28;20033;-90
2023/03/29 09:46:02;;;;;;;12.35;1.48;;;;;;;20.32;27.82;94990.69;5027127;28;20033;-91
2023/03/29 09:48:31;;;;;;;9.27;1.40;;;;;;;19.04;28.54;95000.09;5031431;28;20037;-90
2023/03/29 09:50:56;;;;;;;3.65;1.10;;;;;;;20.14;27.23;94997.88;5004973;28;20042;-90
2023/03/29 09:53:23;;;;;;;3.67;1.05;;;;;;;20.56;26.09;95000.84;4999641;28;20034;-89
2023/03/29 09:55:49;;;;;;;3.08;0.95;;;;;;;19.99;25.86;94996.47;5002546;28;20038;-89
2023/03/29 09:58:18;;;;;;;7.88;1.10;;;;;;;20.58;26.83;95000.53;5003473;28;20335;-90
2023/03/29 10:00:44;;;;;;;7.85;1.13;;;;;;;20.98;28.23;94997.66;5002690;28;20349;-90
2023/03/29 10:03:17;;;;;;;6.20;1.55;;;;;;;21.39;27.15;94997.34;5019269;28;20159;-89
2023/03/29 10:05:45;;;;;;;6.15;1.10;;;;;;;20.73;28.24;95001.91;5003522;28;20437;-92
2023/03/29 10:08:22;;;;;;;7.68;1.23;;;;;;;21.02;28.28;95003.91;5002697;28;20120;-90
2023/03/29 10:10:47;;;;;;;10.90;0.95;;;;;;;21.61;27.17;94997.06;5003281;28;20124;-90
2023/03/29 10:13:22;;;;;;;9.27;1.10;;;;;;;21.92;26.73;94991.72;5002814;28;20124;-91
2023/03/29 10:16:06;;;;;;;4.32;1.27;;;;;;;20.52;29.08;94986.59;5053106;28;20035;-90
2023/03/29 10:18:37;;;;;;;9.73;1.10;;;;;;;20.58;28.76;94998.63;5039392;28;20445;-91
2023/03/29 10:21:04;;;;;;;5.13;1.20;;;;;;;21.01;27.01;94996.22;5048365;28;20025;-90
2023/03/29 10:23:35;;;;;;;4.03;0.95;;;;;;;18.68;30.90;94995.69;5055495;28;20358;-91
2023/03/29 10:26:08;;;;;;;6.10;1.10;;;;;;;19.59;31.06;94995.44;5039317;28;20025;-90
2023/03/29 10:28:35;;;;;;;7.23;1.73;;;;;;;20.32;30.83;94986.16;5035212;28;20663;-89
2023/03/29 10:31:02;;;;;;;4.50;1.20;;;;;;;20.16;31.59;94977.88;5031244;28;20033;-90
2023/03/29 10:33:33;;;;;;;8.20;1.38;;;;;;;20.02;31.11;94977.25;5031415;28;20026;-88
2023/03/29 10:35:59;;;;;;;6.20;1.00;;;;;;;18.46;33.16;94978.66;5002944;28;20033;-89
2023/03/29 10:38:27;;;;;;;9.68;1.45;;;;;;;18.39;32.92;94972.22;5019209;28;20056;-92
2023/03/29 10:40:55;;;;;;;5.35;1.40;;;;;;;19.62;30.86;94978.09;5018883;28;20033;-91
2023/03/29 10:43:25;;;;;;;8.20;1.58;;;;;;;18.73;32.37;94982.28;5015344;28;20034;-92
2023/03/29 10:45:56;;;;;;;7.88;1.50;;;;;;;20.26;29.99;94968.00;5018359;28;20371;-89
2023/03/29 10:48:29;;;;;;;7.65;1.60;;;;;;;20.16;31.56;94983.19;5035795;28;20037;-90
2023/03/29 10:50:57;;;;;;;5.45;1.20;;;;;;;20.71;29.37;94972.16;5002381;28;20433;-90
2023/03/29 10:53:27;;;;;;;2.63;1.10;;;;;;;21.09;28.11;94982.09;5015486;28;20091;-90
2023/03/29 10:56:14;;;;;;;8.57;1.30;;;;;;;20.63;29.10;94981.72;5018768;28;20052;-91
2023/03/29 10:58:57;;;;;;;5.65;1.55;;;;;;;19.80;31.73;94972.81;5020704;28;20036;-89
2023/03/29 11:01:30;;;;;;;;;;;;;;;18.64;33.06;94973.47;5019900;28;20030;-91
2023/03/29 11:04:44;;;;;;;9.80;1.50;;;;;;;19.99;30.97;94969.88;5003526;28;19964;-91
2023/03/29 11:07:21;;;;;;;9.85;2.25;;;;;;;20.15;30.60;94965.66;4984052;28;20455;-90
2023/03/29 11:09:52;;;;;;;7.65;1.88;;;;;;;20.73;29.83;94965.41;5005450;28;20072;-90
2023/03/29 11:12:25;;;;;;;4.20;1.65;;;;;;;21.18;29.68;94960.75;5003608;28;20088;-91
2023/03/29 11:15:35;;;;;;;7.13;1.50;;;;;;;20.98;30.08;94951.56;5022429;28;20503;-90
2023/03/29 11:18:21;;;;;;;12.68;1.75;;;;;;;20.40;33.54;94949.19;5032948;28;20038;-91
2023/03/29 11:21:15;;;;;;;9.32;2.70;;;;;;;20.36;31.29;94945.63;5040057;28;20075;-90
2023/03/29 11:23:49;;;;;;;4.38;1.52;;;;;;;21.21;32.58;94938.00;5020480;28;20036;-91
2023/03/29 11:26:24;;;;;;;;;;;;;;;21.66;30.99;94950.78;5002799;28;20120;-90
2023/03/29 11:28:55;;;;;;;5.80;1.58;;;;;;;21.60;31.69;94952.06;5005410;28;19916;-92
2023/03/29 11:31:23;;;;;;;11.02;1.90;;;;;;;19.91;33.03;94934.19;5018870;28;20041;-89
2023/03/29 11:33:55;;;;;;;5.97;1.70;;;;;;;20.92;30.15;94956.28;5021393;28;20022;-89
2023/03/29 11:36:39;;;;;;;10.15;1.65;;;;;;;21.30;30.69;94957.38;5018974;28;20065;-90
2023/03/29 11:39:38;;;;;;;5.45;2.15;;;;;;;21.50;28.80;94955.09;5032602;28;20394;-92
2023/03/29 11:42:13;;;;;;;7.70;1.83;;;;;;;21.47;31.10;94961.84;5019048;28;20101;-90
2023/03/29 11:44:40;;;;;;;10.20;1.88;;;;;;;21.50;31.67;94953.22;5017944;28;20044;-89
2023/03/29 11:47:13;;;;;;;9.05;1.83;;;;;;;22.25;30.85;94951.75;5027276;28;20040;-90
2023/03/29 11:49:48;;;;;;;9.17;1.57;;;;;;;21.77;32.34;94948.53;5019408;28;20030;-92
2023/03/29 11:52:29;;;;;;;10.75;2.03;;;;;;;20.51;32.72;94947.78;5021972;28;20029;-91
2023/03/29 11:55:24;;;;;;;4.07;1.20;;;;;;;21.42;32.63;94948.72;5005503;28;20388;-91